Time;durP1;ratioP1;P1;durP2;ratioP2;P2;SDS_P1;SDS_P2;PMS_P1;PMS_P2;Temp;Humidity;BMP_temperature;BMP_pressure;BME280_temperature;BME280_humidity;BME280_pressure;Samples;Min_cycle;Max_cycle;Signal;HPM_P1;HPM_P2
2023/01/20 00:00:24;;;;;;;4.50;2.90;;;2.60;79.10;;;;;;5038395;28;20041;-78
2023/01/20 00:02:50;;;;;;;3.37;2.47;;;2.60;79.10;;;;;;5020471;28;20377;-79
2023/01/20 00:05:15;;;;;;;3.03;2.13;;;2.60;79.10;;;;;;5021376;28;20091;-78
2023/01/20 00:07:41;;;;;;;4.40;2.30;;;2.50;79.10;;;;;;5038306;28;20049;-78
2023/01/20 00:10:08;;;;;;;3.67;2.13;;;2.60;79.20;;;;;;5041067;28;20089;-78
2023/01/20 00:12:33;;;;;;;4.70;3.10;;;2.60;79.20;;;;;;5022685;28;20040;-82
2023/01/20 00:14:59;;;;;;;3.87;2.40;;;2.50;79.20;;;;;;5035439;28;20052;-82
2023/01/20 00:17:26;;;;;;;3.47;2.70;;;2.50;79.20;;;;;;5037934;28;20045;-83
2023/01/20 00:19:52;;;;;;;4.67;3.20;;;2.60;79.30;;;;;;5054609;28;20045;-81
2023/01/20 00:22:17;;;;;;;4.53;3.43;;;2.50;79.30;;;;;;5021389;28;20048;-81
2023/01/20 00:24:43;;;;;;;6.23;4.50;;;2.50;79.30;;;;;;5038486;28;20404;-77
2023/01/20 00:27:09;;;;;;;4.47;3.47;;;2.50;79.30;;;;;;5037964;28;20048;-77
2023/01/20 00:29:34;;;;;;;4.70;3.77;;;2.50;79.30;;;;;;5037592;28;20041;-78
2023/01/20 00:32:01;;;;;;;7.63;4.83;;;2.50;79.30;;;;;;5020906;28;20037;-78
2023/01/20 00:34:27;;;;;;;5.43;3.83;;;2.50;79.30;;;;;;5037232;28;20053;-77
2023/01/20 00:36:52;;;;;;;5.47;4.00;;;2.50;79.40;;;;;;5054147;28;20129;-78
2023/01/20 00:39:18;;;;;;;6.10;5.23;;;2.50;79.40;;;;;;5037237;28;20045;-78
2023/01/20 00:41:44;;;;;;;6.87;5.40;;;2.40;79.40;;;;;;5037348;28;20123;-78
2023/01/20 00:44:09;;;;;;;5.77;4.40;;;2.50;79.50;;;;;;5053892;28;20392;-78
2023/01/20 00:46:35;;;;;;;5.80;4.40;;;2.50;79.50;;;;;;5037477;28;20040;-78
2023/01/20 00:49:01;;;;;;;5.43;4.43;;;2.50;79.60;;;;;;5054069;28;20037;-78
2023/01/20 00:51:26;;;;;;;5.30;4.50;;;2.40;79.50;;;;;;5020633;28;20041;-78
2023/01/20 00:53:52;;;;;;;5.33;3.93;;;2.50;79.60;;;;;;5053820;28;20067;-78
2023/01/20 00:56:17;;;;;;;6.10;4.53;;;2.40;79.60;;;;;;5037138;28;20060;-78
2023/01/20 00:58:44;;;;;;;5.93;4.67;;;2.50;79.70;;;;;;5037128;28;20511;-78
2023/01/20 01:01:11;;;;;;;6.07;5.20;;;2.90;80.00;;;;;;5053877;28;20048;-78
2023/01/20 01:03:36;;;;;;;7.83;5.63;;;2.40;79.70;;;;;;5053822;28;20053;-78
2023/01/20 01:06:11;;;;;;;8.27;5.40;;;2.40;79.70;;;;;;5052458;28;20057;-79
2023/01/20 01:08:36;;;;;;;7.40;5.50;;;2.40;79.70;;;;;;5036272;28;20060;-79
2023/01/20 01:11:03;;;;;;;6.67;4.93;;;2.40;79.60;;;;;;5048432;28;20497;-79
2023/01/20 01:13:28;;;;;;;5.63;4.53;;;2.40;79.50;;;;;;5050025;28;20041;-79
2023/01/20 01:15:54;;;;;;;5.80;4.60;;;2.40;79.50;;;;;;5036010;28;20043;-78
2023/01/20 01:18:20;;;;;;;7.27;5.10;;;2.40;79.60;;;;;;5069125;28;20040;-78
2023/01/20 01:20:45;;;;;;;6.47;4.80;;;2.30;79.50;;;;;;5016007;28;20045;-78
2023/01/20 01:23:11;;;;;;;7.07;4.90;;;2.70;79.70;;;;;;5016083;28;20042;-79
2023/01/20 01:25:37;;;;;;;8.13;4.80;;;2.30;79.60;;;;;;5026533;28;20043;-78
2023/01/20 01:28:03;;;;;;;6.37;5.10;;;2.30;79.60;;;;;;5052448;28;20052;-79
2023/01/20 01:30:28;;;;;;;7.57;5.37;;;2.30;79.60;;;;;;5052539;28;20044;-79
2023/01/20 01:32:54;;;;;;;7.17;5.33;;;2.30;79.60;;;;;;5052092;28;20048;-79
2023/01/20 01:35:20;;;;;;;7.57;5.60;;;2.50;79.80;;;;;;5052040;28;20037;-79
2023/01/20 01:37:46;;;;;;;7.07;5.60;;;2.30;79.70;;;;;;5035474;28;20048;-79
2023/01/20 01:40:14;;;;;;;7.17;5.43;;;2.30;79.80;;;;;;5010160;28;20087;-80
2023/01/20 01:42:40;;;;;;;7.90;6.37;;;2.30;79.90;;;;;;5035448;28;20037;-78
2023/01/20 01:45:09;;;;;;;8.27;6.40;;;2.30;80.00;;;;;;5052103;28;20071;-79
2023/01/20 01:47:40;;;;;;;8.17;5.90;;;2.30;80.00;;;;;;5052193;28;20128;-79
2023/01/20 01:50:07;;;;;;;7.37;6.27;;;2.30;80.10;;;;;;5051718;28;20055;-78
2023/01/20 01:52:33;;;;;;;8.10;7.00;;;2.30;80.20;;;;;;5051671;28;20182;-77
2023/01/20 01:55:01;;;;;;;9.80;7.50;;;2.30;80.20;;;;;;5018468;28;20120;-77
2023/01/20 01:57:30;;;;;;;9.30;7.83;;;2.40;80.30;;;;;;5004990;28;20045;-77
2023/01/20 01:59:55;;;;;;;12.63;8.50;;;2.30;80.40;;;;;;5052268;28;20380;-77
2023/01/20 02:02:21;;;;;;;10.10;7.67;;;2.30;80.40;;;;;;5018409;28;20029;-78
2023/01/20 02:04:47;;;;;;;8.73;6.20;;;2.30;80.40;;;;;;4493612;28;15060327;-77
2023/01/20 02:07:16;;;;;;;10.97;8.33;;;2.30;80.40;;;;;;5015576;28;20042;-77
2023/01/20 02:09:42;;;;;;;10.80;8.17;;;2.40;80.60;;;;;;5051950;28;20044;-78
2023/01/20 02:12:13;;;;;;;12.70;8.80;;;2.30;80.90;;;;;;5035729;28;20033;-77
2023/01/20 02:14:51;;;;;;;11.80;9.37;;;2.30;80.50;;;;;;5052293;28;20123;-77
2023/01/20 02:17:39;;;;;;;11.60;9.00;;;2.40;80.60;;;;;;5051978;28;20037;-78
2023/01/20 02:20:29;;;;;;;11.53;9.03;;;2.30;80.60;;;;;;5040669;28;20130;-78
2023/01/20 02:23:13;;;;;;;11.37;8.67;;;2.30;80.60;;;;;;5052550;28;20099;-78
2023/01/20 02:25:56;;;;;;;13.13;9.73;;;2.40;80.80;;;;;;5034805;28;20108;-78
2023/01/20 02:28:47;;;;;;;12.57;9.30;;;2.40;80.70;;;;;;5035216;28;20068;-77
2023/01/20 02:31:51;;;;;;;12.40;9.47;;;2.40;80.70;;;;;;5052092;28;20392;-77
2023/01/20 02:34:35;;;;;;;13.87;10.17;;;2.40;80.70;;;;;;5034994;28;20103;-77
2023/01/20 02:37:15;;;;;;;16.27;11.60;;;2.40;80.80;;;;;;5035697;28;20380;-78
2023/01/20 02:40:02;;;;;;;14.77;9.33;;;2.40;80.60;;;;;;5015667;28;20136;-77
2023/01/20 02:42:41;;;;;;;14.93;11.17;;;2.40;80.60;;;;;;5038132;28;20507;-77
2023/01/20 02:45:34;;;;;;;14.13;10.60;;;2.50;80.80;;;;;;5035080;28;20530;-77
2023/01/20 02:48:08;;;;;;;15.83;10.43;;;2.40;80.70;;;;;;5035398;28;20045;-77
2023/01/20 02:50:40;;;;;;;15.73;11.48;;;2.50;80.80;;;;;;5051786;28;20037;-78
2023/01/20 02:53:08;;;;;;;14.80;11.13;;;2.50;80.80;;;;;;5034552;28;20102;-78
2023/01/20 02:55:45;;;;;;;16.67;12.13;;;2.50;80.80;;;;;;5018252;28;20037;-77
2023/01/20 02:58:49;;;;;;;17.83;12.20;;;2.50;80.80;;;;;;5034811;28;20123;-78
2023/01/20 03:01:24;;;;;;;15.87;11.00;;;2.50;80.70;;;;;;5050741;28;20128;-77
2023/01/20 03:03:54;;;;;;;17.97;11.87;;;2.50;80.80;;;;;;5050283;28;20128;-78
2023/01/20 03:06:24;;;;;;;17.83;11.70;;;2.50;80.70;;;;;;5050634;28;20089;-78
2023/01/20 03:08:52;;;;;;;16.93;11.87;;;2.50;80.80;;;;;;5034950;28;20041;-78
2023/01/20 03:11:18;;;;;;;17.67;12.43;;;2.60;80.90;;;;;;5015285;28;20073;-78
2023/01/20 03:13:56;;;;;;;16.97;11.57;;;2.60;80.90;;;;;;5006861;28;20041;-78
2023/01/20 03:16:25;;;;;;;16.27;10.63;;;2.50;80.80;;;;;;5034947;28;20132;-78
2023/01/20 03:18:51;;;;;;;15.83;11.23;;;2.50;80.80;;;;;;5051879;28;20064;-78
2023/01/20 03:21:17;;;;;;;15.03;10.17;;;2.50;80.90;;;;;;5035135;28;20116;-78
2023/01/20 03:23:49;;;;;;;16.17;11.07;;;2.60;80.90;;;;;;5034662;28;20123;-78
2023/01/20 03:26:17;;;;;;;14.57;10.50;;;2.50;80.90;;;;;;5051773;28;20366;-78
2023/01/20 03:28:44;;;;;;;16.67;11.27;;;2.70;81.00;;;;;;5018823;28;20485;-78
2023/01/20 03:31:14;;;;;;;16.30;11.57;;;2.50;80.80;;;;;;5035145;28;20045;-78
2023/01/20 03:33:42;;;;;;;14.43;10.30;;;2.80;81.00;;;;;;5051320;28;20041;-78
2023/01/20 03:36:08;;;;;;;14.97;11.07;;;2.50;80.70;;;;;;5034933;28;20041;-78
2023/01/20 03:38:34;;;;;;;15.67;10.97;;;2.60;80.70;;;;;;5034634;28;20091;-78
2023/01/20 03:41:12;;;;;;;14.97;10.93;;;2.50;80.60;;;;;;5034913;28;20435;-78
2023/01/20 03:43:46;;;;;;;15.50;10.93;;;2.50;80.70;;;;;;5047080;28;20500;-78
2023/01/20 03:46:21;;;;;;;15.48;10.85;;;2.70;80.90;;;;;;5051460;28;20557;-78
2023/01/20 03:49:00;;;;;;;14.47;10.67;;;2.50;80.80;;;;;;5034511;28;20045;-78
2023/01/20 03:51:45;;;;;;;14.90;10.60;;;2.50;80.80;;;;;;5034885;28;20048;-78
2023/01/20 03:54:21;;;;;;;15.63;10.83;;;2.50;80.80;;;;;;5051042;28;20045;-78
2023/01/20 03:57:02;;;;;;;15.43;10.10;;;2.50;80.80;;;;;;5034750;28;20040;-78
2023/01/20 03:59:34;;;;;;;17.83;12.00;;;2.50;80.80;;;;;;5034902;28;20025;-78
2023/01/20 04:02:03;;;;;;;15.83;11.67;;;2.50;80.90;;;;;;5034299;28;20480;-78
2023/01/20 04:04:33;;;;;;;18.20;12.77;;;2.60;81.00;;;;;;5034651;28;20118;-78
2023/01/20 04:06:59;;;;;;;18.03;12.57;;;2.60;81.10;;;;;;5034645;28;20041;-78
2023/01/20 04:09:30;;;;;;;20.60;14.30;;;2.70;81.10;;;;;;5034508;28;20041;-78
2023/01/20 04:11:56;;;;;;;22.43;14.80;;;2.60;81.10;;;;;;5051067;28;20083;-77
2023/01/20 04:14:22;;;;;;;19.83;13.23;;;2.70;81.00;;;;;;5019271;28;20045;-77
2023/01/20 04:16:57;;;;;;;20.37;13.20;;;2.60;80.90;;;;;;5020376;28;20041;-77
2023/01/20 04:19:24;;;;;;;23.90;15.43;;;2.60;81.00;;;;;;5038072;28;20060;-77
2023/01/20 04:22:28;;;;;;;23.37;15.57;;;2.60;81.00;;;;;;5038181;28;20044;-78
2023/01/20 04:25:05;;;;;;;18.80;11.93;;;2.60;80.90;;;;;;5050955;28;20084;-77
2023/01/20 04:27:31;;;;;;;18.80;13.10;;;2.60;80.90;;;;;;5035212;28;20048;-78
2023/01/20 04:29:57;;;;;;;19.40;13.23;;;2.60;80.90;;;;;;5021560;28;20045;-78
2023/01/20 04:32:23;;;;;;;21.10;14.38;;;2.60;80.80;;;;;;5021392;28;20045;-78
2023/01/20 04:34:52;;;;;;;23.67;15.98;;;2.60;80.90;;;;;;5020858;28;20064;-78
2023/01/20 04:37:18;;;;;;;23.30;14.13;;;2.60;81.40;;;;;;5037564;28;20068;-78
2023/01/20 04:39:43;;;;;;;21.93;14.13;;;2.60;81.00;;;;;;5021139;28;20075;-78
2023/01/20 04:42:10;;;;;;;24.07;15.77;;;2.60;81.00;;;;;;5001598;28;20120;-78
2023/01/20 04:44:35;;;;;;;22.10;15.02;;;2.60;81.10;;;;;;5017875;28;20413;-78
2023/01/20 04:47:01;;;;;;;21.80;15.10;;;2.60;81.10;;;;;;5021134;28;20041;-78
2023/01/20 04:49:27;;;;;;;22.43;15.27;;;2.60;81.10;;;;;;5020894;28;20086;-79
2023/01/20 04:51:53;;;;;;;20.23;14.00;;;2.60;81.20;;;;;;5054000;28;20041;-79
2023/01/20 04:54:19;;;;;;;28.63;16.43;;;2.60;81.10;;;;;;5004188;28;20377;-79
2023/01/20 04:56:46;;;;;;;20.13;13.73;;;2.60;81.20;;;;;;5037311;28;20092;-78
2023/01/20 04:59:12;;;;;;;22.50;14.73;;;2.60;81.10;;;;;;5020998;28;20044;-78
2023/01/20 05:01:37;;;;;;;24.23;16.07;;;3.00;81.40;;;;;;5017259;28;20038;-78
2023/01/20 05:04:03;;;;;;;22.87;16.20;;;2.70;81.20;;;;;;5017666;28;20396;-78
2023/01/20 05:06:29;;;;;;;25.67;17.17;;;2.60;81.10;;;;;;5017138;28;20412;-79
2023/01/20 05:08:54;;;;;;;21.10;14.73;;;2.60;80.90;;;;;;5012290;28;20106;-79
2023/01/20 05:11:20;;;;;;;26.87;17.90;;;2.70;81.00;;;;;;5018918;28;20042;-79
2023/01/20 05:13:46;;;;;;;24.23;16.33;;;2.70;81.00;;;;;;5002756;28;20137;-79
2023/01/20 05:16:11;;;;;;;23.05;15.50;;;2.60;80.80;;;;;;5037228;28;20044;-79
2023/01/20 05:18:37;;;;;;;25.40;17.27;;;2.60;80.80;;;;;;5020773;28;20460;-79
2023/01/20 05:21:04;;;;;;;26.27;16.40;;;2.80;80.90;;;;;;5053526;28;20047;-80
2023/01/20 05:23:29;;;;;;;23.92;16.48;;;2.70;80.70;;;;;;5053428;28;20033;-81
2023/01/20 05:25:55;;;;;;;24.00;16.27;;;2.70;80.80;;;;;;5036151;28;20537;-79
2023/01/20 05:28:21;;;;;;;25.03;16.33;;;2.70;80.80;;;;;;5017459;28;20491;-79
2023/01/20 05:30:48;;;;;;;25.30;16.17;;;2.80;80.80;;;;;;5053794;28;20110;-79
2023/01/20 05:33:14;;;;;;;23.87;16.40;;;2.80;80.70;;;;;;5020392;28;20036;-79
2023/01/20 05:35:40;;;;;;;29.27;18.43;;;2.70;80.60;;;;;;5003711;28;20476;-79
2023/01/20 05:38:06;;;;;;;23.60;15.83;;;2.60;80.50;;;;;;5003570;28;20120;-78
2023/01/20 05:40:32;;;;;;;27.17;17.17;;;2.70;80.50;;;;;;5036168;28;20029;-79
2023/01/20 05:42:59;;;;;;;25.43;16.73;;;2.60;80.50;;;;;;5053243;28;20029;-79
2023/01/20 05:45:25;;;;;;;26.37;16.93;;;3.00;80.70;;;;;;5052969;28;20045;-78
2023/01/20 05:47:57;;;;;;;28.65;18.35;;;2.60;80.50;;;;;;5019921;28;20115;-78
2023/01/20 05:50:25;;;;;;;30.00;18.57;;;2.60;80.70;;;;;;5036259;28;20041;-79
2023/01/20 05:52:51;;;;;;;30.50;18.50;;;2.60;80.70;;;;;;5052799;28;20423;-79
2023/01/20 05:55:17;;;;;;;29.00;17.80;;;2.60;80.60;;;;;;5019078;28;20091;-78
2023/01/20 05:57:42;;;;;;;30.33;18.67;;;2.60;80.60;;;;;;5036268;28;20033;-79
2023/01/20 06:00:09;;;;;;;29.90;19.52;;;2.60;80.60;;;;;;5019216;28;20072;-78
2023/01/20 06:02:34;;;;;;;30.77;19.53;;;2.60;80.50;;;;;;5051904;28;20377;-78
2023/01/20 06:05:00;;;;;;;30.73;18.00;;;2.90;80.60;;;;;;5035667;28;20114;-79
2023/01/20 06:07:29;;;;;;;31.83;18.97;;;2.60;80.30;;;;;;5052570;28;20045;-78
2023/01/20 06:09:55;;;;;;;28.40;18.80;;;2.60;80.40;;;;;;5035870;28;20119;-79
2023/01/20 06:12:21;;;;;;;32.37;20.97;;;2.60;80.40;;;;;;5019427;28;20076;-78
2023/01/20 06:14:47;;;;;;;30.13;19.03;;;2.60;80.40;;;;;;5036069;28;20072;-83
2023/01/20 06:17:13;;;;;;;34.73;20.80;;;2.50;80.30;;;;;;5019803;28;20033;-83
2023/01/20 06:19:38;;;;;;;29.57;18.70;;;2.60;80.50;;;;;;5036192;28;20518;-82
2023/01/20 06:22:06;;;;;;;32.83;21.13;;;2.80;80.60;;;;;;5019493;28;20041;-83
2023/01/20 06:24:32;;;;;;;32.77;19.57;;;2.50;80.40;;;;;;5052568;28;20420;-81
2023/01/20 06:26:58;;;;;;;33.90;20.77;;;2.50;80.50;;;;;;5035817;28;20083;-82
2023/01/20 06:29:24;;;;;;;29.17;18.20;;;2.50;80.50;;;;;;5019255;28;20045;-79
2023/01/20 06:31:49;;;;;;;31.03;18.67;;;2.50;80.60;;;;;;5019035;28;20040;-78
2023/01/20 06:34:15;;;;;;;30.50;18.50;;;2.60;80.70;;;;;;5035240;28;20094;-78
2023/01/20 06:36:41;;;;;;;30.27;17.70;;;2.50;80.70;;;;;;5018905;28;20064;-79
2023/01/20 06:39:06;;;;;;;34.07;22.03;;;2.50;80.70;;;;;;5035510;28;20041;-82
2023/01/20 06:41:32;;;;;;;31.90;20.63;;;2.60;80.80;;;;;;5015839;28;20041;-79
2023/01/20 06:43:58;;;;;;;29.77;18.57;;;2.60;80.70;;;;;;5046783;28;20055;-82
2023/01/20 06:46:24;;;;;;;32.13;20.37;;;2.60;80.60;;;;;;5039242;28;20462;-81
2023/01/20 06:48:50;;;;;;;34.37;20.50;;;2.70;80.90;;;;;;5035782;28;20036;-82
2023/01/20 06:51:19;;;;;;;34.03;20.93;;;2.60;80.40;;;;;;5052077;28;20052;-82
2023/01/20 06:53:45;;;;;;;34.67;20.90;;;2.90;81.00;;;;;;5019127;28;20128;-82
2023/01/20 06:56:13;;;;;;;27.87;18.57;;;2.50;80.40;;;;;;5051868;28;20500;-82
2023/01/20 06:58:39;;;;;;;30.23;19.07;;;2.60;80.50;;;;;;5051846;28;20040;-78
2023/01/20 07:01:12;;;;;;;36.17;20.90;;;2.60;80.60;;;;;;5015537;28;20064;-81
2023/01/20 07:03:40;;;;;;;30.00;18.67;;;2.60;80.80;;;;;;5032267;28;20041;-82
2023/01/20 07:06:21;;;;;;;33.07;20.90;;;2.60;80.90;;;;;;5031927;28;20060;-82
2023/01/20 07:08:47;;;;;;;31.40;20.13;;;2.60;80.90;;;;;;5032373;28;20115;-82
2023/01/20 07:11:12;;;;;;;39.00;23.27;;;2.60;80.70;;;;;;5015668;28;20484;-82
2023/01/20 07:13:38;;;;;;;34.50;21.98;;;2.60;80.70;;;;;;5015575;28;20053;-82
2023/01/20 07:16:04;;;;;;;39.40;22.70;;;2.60;80.60;;;;;;5015523;28;20084;-82
2023/01/20 07:18:30;;;;;;;37.33;22.85;;;2.60;80.50;;;;;;5015492;28;20120;-82
2023/01/20 07:20:56;;;;;;;35.90;21.13;;;2.60;80.50;;;;;;4999486;28;20037;-82
2023/01/20 07:23:22;;;;;;;36.33;21.30;;;2.80;81.00;;;;;;5035690;28;20048;-82
2023/01/20 07:26:04;;;;;;;41.43;23.40;;;2.60;80.50;;;;;;5035850;28;20063;-82
2023/01/20 07:28:31;;;;;;;39.03;22.67;;;3.10;80.70;;;;;;5035354;28;20095;-82
2023/01/20 07:31:03;;;;;;;38.88;23.58;;;2.60;80.40;;;;;;5018821;28;20037;-82
2023/01/20 07:33:29;;;;;;;38.30;23.33;;;2.60;80.40;;;;;;5035478;28;20083;-82
2023/01/20 07:35:55;;;;;;;40.57;23.47;;;2.60;80.40;;;;;;5035125;28;20033;-82
2023/01/20 07:38:20;;;;;;;38.13;23.27;;;2.60;80.30;;;;;;5051796;28;20072;-82
2023/01/20 07:40:46;;;;;;;39.20;23.60;;;2.60;80.20;;;;;;5018581;28;20487;-81
2023/01/20 07:43:12;;;;;;;40.45;24.45;;;2.60;80.20;;;;;;5018566;28;20083;-81
2023/01/20 07:45:38;;;;;;;43.25;24.80;;;2.50;80.20;;;;;;5051576;28;20029;-81
2023/01/20 07:48:05;;;;;;;41.50;23.70;;;2.60;80.20;;;;;;5018356;28;20037;-81
2023/01/20 07:50:31;;;;;;;44.73;24.37;;;2.60;80.20;;;;;;5021852;28;20429;-82
2023/01/20 07:52:57;;;;;;;39.77;23.40;;;2.60;80.10;;;;;;5055265;28;20132;-81
2023/01/20 07:55:22;;;;;;;44.80;24.97;;;2.50;80.10;;;;;;5038574;28;20037;-81
2023/01/20 07:57:49;;;;;;;40.40;23.80;;;2.50;80.10;;;;;;5055070;28;20052;-81
2023/01/20 08:00:17;;;;;;;40.77;23.30;;;2.50;80.10;;;;;;5022258;28;20135;-81
2023/01/20 08:02:43;;;;;;;43.67;24.53;;;2.50;80.20;;;;;;5021082;28;20046;-82
2023/01/20 08:05:08;;;;;;;45.97;24.17;;;2.70;80.30;;;;;;5038077;28;20061;-82
2023/01/20 08:07:34;;;;;;;49.97;26.43;;;2.50;80.20;;;;;;5054842;28;20045;-80
2023/01/20 08:10:00;;;;;;;47.35;25.92;;;2.50;80.20;;;;;;5021246;28;20395;-82
2023/01/20 08:12:28;;;;;;;48.33;24.80;;;2.50;80.10;;;;;;5021535;28;20040;-81
2023/01/20 08:14:54;;;;;;;47.77;24.60;;;2.50;80.20;;;;;;5054630;28;20033;-81
2023/01/20 08:17:19;;;;;;;46.42;24.35;;;2.60;80.30;;;;;;5055301;28;20048;-81
2023/01/20 08:19:45;;;;;;;45.55;24.10;;;2.70;80.30;;;;;;5021562;28;20075;-81
2023/01/20 08:22:11;;;;;;;49.40;25.30;;;2.40;80.20;;;;;;5038181;28;20043;-81
2023/01/20 08:24:36;;;;;;;44.97;24.03;;;2.40;80.20;;;;;;5038122;28;20045;-81
2023/01/20 08:27:02;;;;;;;45.70;24.63;;;2.40;80.30;;;;;;5021600;28;20041;-81
2023/01/20 08:29:30;;;;;;;44.23;22.50;;;2.30;80.20;;;;;;5038301;28;20041;-81
2023/01/20 08:32:01;;;;;;;49.57;25.17;;;2.40;80.30;;;;;;5038240;28;20041;-81
2023/01/20 08:34:27;;;;;;;49.00;26.03;;;2.40;80.20;;;;;;5054489;28;20481;-81
2023/01/20 08:36:56;;;;;;;44.10;25.27;;;2.70;80.40;;;;;;5038144;28;20128;-81
2023/01/20 08:39:22;;;;;;;48.80;25.97;;;2.30;80.20;;;;;;5054443;28;20044;-81
2023/01/20 08:41:49;;;;;;;48.47;24.50;;;2.50;80.30;;;;;;5054462;28;20095;-81
2023/01/20 08:44:16;;;;;;;56.83;28.23;;;2.30;80.20;;;;;;5054664;28;20037;-81
2023/01/20 08:46:43;;;;;;;44.30;24.17;;;2.30;80.30;;;;;;5037634;28;20545;-79
2023/01/20 08:49:14;;;;;;;50.87;26.47;;;2.30;80.30;;;;;;5053955;28;20052;-78
2023/01/20 08:51:41;;;;;;;52.67;26.13;;;2.30;80.40;;;;;;5053629;28;20076;-78
2023/01/20 08:54:07;;;;;;;46.13;24.77;;;2.30;80.60;;;;;;5054004;28;20033;-78
2023/01/20 08:56:34;;;;;;;47.13;23.27;;;2.30;80.70;;;;;;5020770;28;20040;-80
2023/01/20 08:59:01;;;;;;;50.43;25.47;;;2.20;80.70;;;;;;5037532;28;20037;-80
2023/01/20 09:01:29;;;;;;;48.50;24.83;;;2.30;80.80;;;;;;5037460;28;20494;-81
2023/01/20 09:03:56;;;;;;;48.53;24.30;;;2.20;80.80;;;;;;5054067;28;20041;-81
2023/01/20 09:06:22;;;;;;;47.00;24.47;;;2.30;81.00;;;;;;5053985;28;20061;-81
2023/01/20 09:08:49;;;;;;;48.20;23.43;;;2.20;81.00;;;;;;5054220;28;20127;-81
2023/01/20 09:11:18;;;;;;;45.73;23.23;;;2.30;81.10;;;;;;5037310;28;20047;-81
2023/01/20 09:13:44;;;;;;;45.97;22.13;;;2.20;81.10;;;;;;5037295;28;20040;-81
2023/01/20 09:16:15;;;;;;;51.13;25.30;;;2.30;81.20;;;;;;5037177;28;20100;-81
2023/01/20 09:18:41;;;;;;;45.50;23.27;;;2.30;81.30;;;;;;5053683;28;20037;-80
2023/01/20 09:21:08;;;;;;;48.60;23.20;;;2.30;81.40;;;;;;5053667;28;20041;-81
2023/01/20 09:23:36;;;;;;;43.03;22.83;;;2.60;81.60;;;;;;5020540;28;20118;-81
2023/01/20 09:26:03;;;;;;;48.17;23.70;;;2.40;81.40;;;;;;5020987;28;20071;-81
2023/01/20 09:28:29;;;;;;;47.53;23.07;;;2.30;81.20;;;;;;5037312;28;20041;-81
2023/01/20 09:31:04;;;;;;;39.47;21.10;;;2.30;81.20;;;;;;5053529;28;20071;-81
2023/01/20 09:33:30;;;;;;;47.13;23.97;;;2.40;81.30;;;;;;5036859;28;20045;-81
2023/01/20 09:35:57;;;;;;;44.47;22.70;;;2.40;81.20;;;;;;5036736;28;20090;-80
2023/01/20 09:44:18;;;;;;;43.77;22.30;;;2.40;81.00;;;;;;5053266;28;20075;-81
2023/01/20 09:47:18;;;;;;;44.50;22.50;;;2.40;81.10;;;;;;5036557;28;20048;-81
2023/01/20 09:55:28;;;;;;;45.50;22.60;;;2.50;81.30;;;;;;5039076;28;20053;-81
2023/01/20 09:58:05;;;;;;;48.50;22.87;;;2.40;81.30;;;;;;5053230;28;20385;-81
2023/01/20 10:00:33;;;;;;;42.83;22.00;;;2.40;81.20;;;;;;5036575;28;20041;-81
2023/01/20 10:03:06;;;;;;;43.23;22.07;;;2.60;81.50;;;;;;5036164;28;20041;-81
2023/01/20 10:05:37;;;;;;;42.77;22.63;;;2.40;81.40;;;;;;5036091;28;20049;-80
2023/01/20 10:08:15;;;;;;;40.27;21.57;;;2.50;81.50;;;;;;5036038;28;20045;-80
2023/01/20 10:10:46;;;;;;;38.67;21.20;;;2.50;81.40;;;;;;5052795;28;20069;-80
2023/01/20 10:13:31;;;;;;;43.67;22.03;;;2.50;81.30;;;;;;5051771;28;20048;-80
2023/01/20 10:16:03;;;;;;;42.35;21.50;;;2.50;81.30;;;;;;5052831;28;20079;-80
2023/01/20 10:18:40;;;;;;;41.43;22.03;;;2.70;81.50;;;;;;5035447;28;20036;-80
2023/01/20 10:21:24;;;;;;;41.53;21.60;;;2.50;81.40;;;;;;5036051;28;20611;-80
2023/01/20 10:23:55;;;;;;;40.85;20.48;;;2.60;81.40;;;;;;5035880;28;20099;-80
2023/01/20 10:26:24;;;;;;;37.50;19.80;;;2.60;81.30;;;;;;5052673;28;20450;-80
2023/01/20 10:28:59;;;;;;;40.08;22.08;;;2.60;81.30;;;;;;5052421;28;20575;-81
2023/01/20 10:31:28;;;;;;;35.87;20.30;;;2.60;81.30;;;;;;5052230;28;20369;-80
2023/01/20 10:33:59;;;;;;;37.23;20.47;;;2.60;81.20;;;;;;5052327;28;20131;-80
2023/01/20 10:36:28;;;;;;;38.72;19.83;;;2.60;81.20;;;;;;5035535;28;20076;-78
2023/01/20 10:38:57;;;;;;;42.00;19.80;;;2.60;81.00;;;;;;5035144;28;20033;-78
2023/01/20 10:41:47;;;;;;;36.27;20.53;;;2.60;81.00;;;;;;5035093;28;20037;-78
2023/01/20 10:44:14;;;;;;;37.70;19.33;;;2.70;81.20;;;;;;5052087;28;20041;-78
2023/01/20 10:47:06;;;;;;;38.25;19.80;;;2.60;81.60;;;;;;5035482;28;20036;-78
2023/01/20 10:50:09;;;;;;;35.90;19.27;;;2.70;81.40;;;;;;5035456;28;20045;-78
2023/01/20 10:53:03;;;;;;;37.27;19.50;;;2.70;81.30;;;;;;5051978;28;20044;-78
2023/01/20 10:55:37;;;;;;;36.63;19.07;;;2.70;81.20;;;;;;5034758;28;20041;-78
2023/01/20 10:58:28;;;;;;;31.67;17.52;;;2.70;81.00;;;;;;5051432;28;20095;-79
2023/01/20 11:00:54;;;;;;;36.70;19.10;;;2.70;80.90;;;;;;5029715;28;20055;-78
2023/01/20 11:03:22;;;;;;;35.93;18.73;;;2.90;81.10;;;;;;5033876;28;20047;-79
2023/01/20 11:05:49;;;;;;;35.77;18.27;;;2.70;81.00;;;;;;5034618;28;20045;-80
2023/01/20 11:08:24;;;;;;;37.33;19.83;;;2.70;80.90;;;;;;5051733;28;20037;-79
2023/01/20 11:10:54;;;;;;;37.00;19.83;;;2.70;80.80;;;;;;5035482;28;20051;-79
2023/01/20 11:13:20;;;;;;;34.63;18.20;;;3.10;81.00;;;;;;5051613;28;20455;-79
2023/01/20 11:15:53;;;;;;;39.22;19.83;;;2.80;80.90;;;;;;5034957;28;20128;-79
2023/01/20 11:18:29;;;;;;;33.27;17.30;;;2.70;80.90;;;;;;5035003;28;20047;-77
2023/01/20 11:21:01;;;;;;;33.28;17.70;;;2.70;80.90;;;;;;5035082;28;20116;-78
2023/01/20 11:23:48;;;;;;;37.50;19.03;;;2.70;81.00;;;;;;5051636;28;20106;-78
2023/01/20 11:26:34;;;;;;;32.60;18.07;;;2.70;81.00;;;;;;5038854;28;20072;-78
2023/01/20 11:29:03;;;;;;;34.77;18.83;;;2.70;80.90;;;;;;5055480;28;20037;-78
2023/01/20 11:31:51;;;;;;;32.77;16.97;;;2.70;80.90;;;;;;5038382;28;20033;-78
2023/01/20 11:34:20;;;;;;;34.27;18.20;;;2.70;81.00;;;;;;5022053;28;20033;-78
2023/01/20 11:36:45;;;;;;;36.03;17.23;;;2.70;81.00;;;;;;5058528;28;20042;-79
2023/01/20 11:39:40;;;;;;;36.70;18.23;;;2.70;81.00;;;;;;5025405;28;20052;-79
2023/01/20 11:42:25;;;;;;;33.87;17.00;;;2.70;81.10;;;;;;5055216;28;20696;-78
2023/01/20 11:44:59;;;;;;;30.47;16.63;;;2.70;81.10;;;;;;5038757;28;20145;-78
2023/01/20 11:47:32;;;;;;;28.30;15.88;;;2.70;81.10;;;;;;5021825;28;20049;-78
2023/01/20 11:50:03;;;;;;;31.00;16.93;;;2.70;81.00;;;;;;5039036;28;20418;-79
2023/01/20 11:52:35;;;;;;;35.97;17.65;;;2.70;81.00;;;;;;5038345;28;20041;-78
2023/01/20 11:55:11;;;;;;;34.03;17.77;;;3.10;81.30;;;;;;5054791;28;20037;-78
2023/01/20 11:57:57;;;;;;;35.00;17.33;;;2.60;80.90;;;;;;5018778;28;20408;-78
2023/01/20 12:00:42;;;;;;;30.85;16.20;;;2.60;80.80;;;;;;5042090;28;20035;-79
2023/01/20 12:03:21;;;;;;;34.67;17.20;;;2.60;80.90;;;;;;5059687;28;20043;-79
2023/01/20 12:05:51;;;;;;;32.43;16.50;;;2.60;80.90;;;;;;5063722;28;21356;-78
2023/01/20 12:08:39;;;;;;;30.93;16.67;;;2.60;80.90;;;;;;5046476;28;20393;-79
2023/01/20 12:11:07;;;;;;;35.93;16.70;;;2.60;81.10;;;;;;5064001;28;20127;-79
2023/01/20 12:14:18;;;;;;;33.37;17.03;;;2.60;81.10;;;;;;5032635;28;20040;-79
2023/01/20 12:16:28;;;;;;;33.83;17.70;;;2.60;81.20;;;;;;5062978;28;20475;-79
2023/01/20 12:18:59;;;;;;;30.67;15.97;;;2.60;81.10;;;;;;5047882;28;20111;-78
2023/01/20 12:21:38;;;;;;;34.60;17.17;;;2.60;81.20;;;;;;5049609;28;20043;-80
2023/01/20 12:24:11;;;;;;;34.23;17.87;;;2.60;81.20;;;;;;5063350;28;20037;-80
2023/01/20 12:26:38;;;;;;;35.33;17.30;;;2.60;81.30;;;;;;5048215;28;20040;-80
2023/01/20 12:29:15;;;;;;;33.53;18.07;;;2.60;81.30;;;;;;5028795;28;21337;-80
2023/01/20 12:31:43;;;;;;;36.53;17.87;;;2.60;81.20;;;;;;5044479;28;20048;-80
2023/01/20 12:34:12;;;;;;;35.40;18.17;;;2.60;81.20;;;;;;5062362;28;20435;-80
2023/01/20 12:37:00;;;;;;;34.47;16.90;;;2.60;81.20;;;;;;5047791;28;20585;-81
2023/01/20 12:39:46;;;;;;;34.07;17.43;;;2.60;81.10;;;;;;5058916;28;20044;-82
2023/01/20 12:42:32;;;;;;;38.10;18.27;;;2.60;81.10;;;;;;5040234;28;20044;-80
2023/01/20 12:45:04;;;;;;;33.90;18.00;;;2.60;81.10;;;;;;5060369;28;20051;-80
2023/01/20 12:48:03;;;;;;;36.57;18.70;;;2.60;81.10;;;;;;5059128;28;20037;-80
2023/01/20 12:50:50;;;;;;;37.20;18.77;;;2.60;81.00;;;;;;5056649;28;20111;-79
2023/01/20 12:53:37;;;;;;;36.77;18.73;;;2.60;81.00;;;;;;5063323;28;20041;-80
2023/01/20 12:56:21;;;;;;;34.73;18.83;;;2.60;81.00;;;;;;5043380;28;20033;-81
2023/01/20 12:59:07;;;;;;;35.97;17.67;;;2.60;81.10;;;;;;5045859;28;20503;-81
2023/01/20 13:02:06;;;;;;;32.90;18.70;;;2.60;81.10;;;;;;5020241;28;20079;-81
2023/01/20 13:04:49;;;;;;;34.23;17.30;;;2.60;81.20;;;;;;5008978;28;20044;-78
2023/01/20 13:07:41;;;;;;;34.50;18.87;;;2.60;81.30;;;;;;5047396;28;20120;-78
2023/01/20 13:10:20;;;;;;;36.00;19.03;;;2.60;81.30;;;;;;5017204;28;20049;-78